sensor_id;sensor_type;location;lat;lon;timestamp;P1;durP1;ratioP1;P2;durP2;ratioP2
51475;SDS011;37554;50.362;7.568;2023-01-15T00:01:25;0.32;;;0.20;;
51475;SDS011;37554;50.362;7.568;2023-01-15T00:03:56;1.15;;;0.20;;
51475;SDS011;37554;50.362;7.568;2023-01-15T00:06:23;0.10;;;0.10;;
51475;SDS011;37554;50.362;7.568;2023-01-15T00:08:50;0.57;;;0.20;;
51475;SDS011;37554;50.362;7.568;2023-01-15T00:11:17;0.40;;;0.20;;
51475;SDS011;37554;50.362;7.568;2023-01-15T00:13:43;0.30;;;0.10;;
51475;SDS011;37554;50.362;7.568;2023-01-15T00:16:13;0.60;;;0.20;;
51475;SDS011;37554;50.362;7.568;2023-01-15T00:18:42;0.20;;;0.10;;
51475;SDS011;37554;50.362;7.568;2023-01-15T00:21:11;0.17;;;0.13;;
51475;SDS011;37554;50.362;7.568;2023-01-15T00:23:37;0.15;;;0.15;;
51475;SDS011;37554;50.362;7.568;2023-01-15T00:26:24;0.45;;;0.20;;
51475;SDS011;37554;50.362;7.568;2023-01-15T00:29:11;1.00;;;0.20;;
51475;SDS011;37554;50.362;7.568;2023-01-15T00:31:36;0.38;;;0.13;;
51475;SDS011;37554;50.362;7.568;2023-01-15T00:34:02;0.08;;;0.05;;
51475;SDS011;37554;50.362;7.568;2023-01-15T00:36:28;0.28;;;0.13;;
51475;SDS011;37554;50.362;7.568;2023-01-15T00:38:53;0.20;;;0.15;;
51475;SDS011;37554;50.362;7.568;2023-01-15T00:41:19;0.20;;;0.20;;
51475;SDS011;37554;50.362;7.568;2023-01-15T00:43:45;0.28;;;0.22;;
51475;SDS011;37554;50.362;7.568;2023-01-15T00:46:11;0.73;;;0.20;;
51475;SDS011;37554;50.362;7.568;2023-01-15T00:48:37;1.02;;;0.13;;
51475;SDS011;37554;50.362;7.568;2023-01-15T00:51:03;0.60;;;0.22;;
51475;SDS011;37554;50.362;7.568;2023-01-15T00:53:29;0.32;;;0.13;;
51475;SDS011;37554;50.362;7.568;2023-01-15T00:55:55;0.20;;;0.10;;
51475;SDS011;37554;50.362;7.568;2023-01-15T00:58:21;0.38;;;0.30;;
51475;SDS011;37554;50.362;7.568;2023-01-15T01:00:53;0.30;;;0.20;;
51475;SDS011;37554;50.362;7.568;2023-01-15T01:03:20;0.57;;;0.20;;
51475;SDS011;37554;50.362;7.568;2023-01-15T01:05:46;0.60;;;0.17;;
51475;SDS011;37554;50.362;7.568;2023-01-15T01:08:12;1.02;;;0.20;;
51475;SDS011;37554;50.362;7.568;2023-01-15T01:10:38;0.40;;;0.20;;
51475;SDS011;37554;50.362;7.568;2023-01-15T01:13:04;1.10;;;0.20;;
51475;SDS011;37554;50.362;7.568;2023-01-15T01:15:31;0.52;;;0.20;;
51475;SDS011;37554;50.362;7.568;2023-01-15T01:17:58;0.52;;;0.30;;
51475;SDS011;37554;50.362;7.568;2023-01-15T01:20:23;0.30;;;0.13;;
51475;SDS011;37554;50.362;7.568;2023-01-15T01:22:50;1.00;;;0.20;;
51475;SDS011;37554;50.362;7.568;2023-01-15T01:25:17;0.28;;;0.10;;
51475;SDS011;37554;50.362;7.568;2023-01-15T01:27:43;0.20;;;0.20;;
51475;SDS011;37554;50.362;7.568;2023-01-15T01:30:09;0.30;;;0.20;;
51475;SDS011;37554;50.362;7.568;2023-01-15T01:32:35;0.30;;;0.17;;
51475;SDS011;37554;50.362;7.568;2023-01-15T01:35:01;0.32;;;0.20;;
51475;SDS011;37554;50.362;7.568;2023-01-15T01:37:27;0.38;;;0.20;;
51475;SDS011;37554;50.362;7.568;2023-01-15T01:39:52;0.52;;;0.20;;
51475;SDS011;37554;50.362;7.568;2023-01-15T01:42:19;0.63;;;0.20;;
51475;SDS011;37554;50.362;7.568;2023-01-15T01:47:12;0.47;;;0.20;;
51475;SDS011;37554;50.362;7.568;2023-01-15T01:49:47;1.35;;;0.30;;
51475;SDS011;37554;50.362;7.568;2023-01-15T01:52:18;0.30;;;0.20;;
51475;SDS011;37554;50.362;7.568;2023-01-15T01:54:47;0.50;;;0.20;;
51475;SDS011;37554;50.362;7.568;2023-01-15T01:57:13;0.50;;;0.20;;
51475;SDS011;37554;50.362;7.568;2023-01-15T01:59:40;0.38;;;0.15;;
51475;SDS011;37554;50.362;7.568;2023-01-15T02:02:07;0.68;;;0.30;;
51475;SDS011;37554;50.362;7.568;2023-01-15T02:04:32;0.47;;;0.22;;
51475;SDS011;37554;50.362;7.568;2023-01-15T02:07:00;0.75;;;0.30;;
51475;SDS011;37554;50.362;7.568;2023-01-15T02:09:27;0.38;;;0.20;;
51475;SDS011;37554;50.362;7.568;2023-01-15T02:11:52;0.95;;;0.30;;
51475;SDS011;37554;50.362;7.568;2023-01-15T02:17:15;0.52;;;0.20;;
51475;SDS011;37554;50.362;7.568;2023-01-15T02:25:17;0.17;;;0.13;;
51475;SDS011;37554;50.362;7.568;2023-01-15T02:28:04;0.32;;;0.17;;
51475;SDS011;37554;50.362;7.568;2023-01-15T02:30:41;0.10;;;0.10;;
51475;SDS011;37554;50.362;7.568;2023-01-15T02:33:13;0.30;;;0.10;;
51475;SDS011;37554;50.362;7.568;2023-01-15T02:35:51;0.25;;;0.10;;
51475;SDS011;37554;50.362;7.568;2023-01-15T02:38:25;0.25;;;0.20;;
51475;SDS011;37554;50.362;7.568;2023-01-15T02:40:55;0.20;;;0.10;;
51475;SDS011;37554;50.362;7.568;2023-01-15T02:43:24;0.20;;;0.20;;
51475;SDS011;37554;50.362;7.568;2023-01-15T02:45:53;0.68;;;0.20;;
51475;SDS011;37554;50.362;7.568;2023-01-15T02:48:22;0.30;;;0.10;;
51475;SDS011;37554;50.362;7.568;2023-01-15T02:50:54;0.65;;;0.13;;
51475;SDS011;37554;50.362;7.568;2023-01-15T02:53:27;0.20;;;0.10;;
51475;SDS011;37554;50.362;7.568;2023-01-15T02:55:56;0.25;;;0.10;;
51475;SDS011;37554;50.362;7.568;2023-01-15T02:58:27;0.10;;;0.10;;
51475;SDS011;37554;50.362;7.568;2023-01-15T03:00:57;0.82;;;0.13;;
51475;SDS011;37554;50.362;7.568;2023-01-15T03:03:37;0.20;;;0.10;;
51475;SDS011;37554;50.362;7.568;2023-01-15T03:08:38;0.10;;;0.00;;
51475;SDS011;37554;50.362;7.568;2023-01-15T03:11:11;0.13;;;0.10;;
51475;SDS011;37554;50.362;7.568;2023-01-15T03:13:44;0.10;;;0.10;;
51475;SDS011;37554;50.362;7.568;2023-01-15T03:16:30;0.32;;;0.13;;
51475;SDS011;37554;50.362;7.568;2023-01-15T03:22:04;0.00;;;0.00;;
51475;SDS011;37554;50.362;7.568;2023-01-15T03:24:49;0.05;;;0.05;;
51475;SDS011;37554;50.362;7.568;2023-01-15T03:27:25;0.10;;;0.05;;
51475;SDS011;37554;50.362;7.568;2023-01-15T03:29:52;0.20;;;0.10;;
51475;SDS011;37554;50.362;7.568;2023-01-15T03:32:26;0.63;;;0.10;;
51475;SDS011;37554;50.362;7.568;2023-01-15T03:34:53;0.20;;;0.10;;
51475;SDS011;37554;50.362;7.568;2023-01-15T03:37:20;0.93;;;0.10;;
51475;SDS011;37554;50.362;7.568;2023-01-15T03:39:48;0.10;;;0.10;;
51475;SDS011;37554;50.362;7.568;2023-01-15T03:42:49;0.55;;;0.10;;
51475;SDS011;37554;50.362;7.568;2023-01-15T03:45:34;0.40;;;0.20;;
51475;SDS011;37554;50.362;7.568;2023-01-15T03:48:10;0.10;;;0.10;;
51475;SDS011;37554;50.362;7.568;2023-01-15T03:50:47;0.10;;;0.00;;
51475;SDS011;37554;50.362;7.568;2023-01-15T03:58:59;0.10;;;0.00;;
51475;SDS011;37554;50.362;7.568;2023-01-15T04:01:31;0.70;;;0.10;;
51475;SDS011;37554;50.362;7.568;2023-01-15T04:04:01;0.30;;;0.10;;
51475;SDS011;37554;50.362;7.568;2023-01-15T04:06:28;0.47;;;0.30;;
51475;SDS011;37554;50.362;7.568;2023-01-15T04:08:55;0.20;;;0.10;;
51475;SDS011;37554;50.362;7.568;2023-01-15T04:11:23;0.15;;;0.03;;
51475;SDS011;37554;50.362;7.568;2023-01-15T04:13:50;0.10;;;0.00;;
51475;SDS011;37554;50.362;7.568;2023-01-15T04:16:26;0.68;;;0.10;;
51475;SDS011;37554;50.362;7.568;2023-01-15T04:18:53;0.55;;;0.10;;
51475;SDS011;37554;50.362;7.568;2023-01-15T04:21:19;0.45;;;0.20;;
51475;SDS011;37554;50.362;7.568;2023-01-15T04:23:46;0.03;;;0.00;;
51475;SDS011;37554;50.362;7.568;2023-01-15T04:26:12;0.77;;;0.20;;
51475;SDS011;37554;50.362;7.568;2023-01-15T04:28:38;0.47;;;0.13;;
51475;SDS011;37554;50.362;7.568;2023-01-15T04:31:04;0.10;;;0.00;;
51475;SDS011;37554;50.362;7.568;2023-01-15T04:33:29;1.52;;;0.10;;
51475;SDS011;37554;50.362;7.568;2023-01-15T04:35:57;0.30;;;0.10;;
51475;SDS011;37554;50.362;7.568;2023-01-15T04:38:23;0.20;;;0.10;;
51475;SDS011;37554;50.362;7.568;2023-01-15T04:40:49;0.43;;;0.10;;
51475;SDS011;37554;50.362;7.568;2023-01-15T04:43:33;0.40;;;0.10;;
51475;SDS011;37554;50.362;7.568;2023-01-15T04:46:21;0.63;;;0.20;;
51475;SDS011;37554;50.362;7.568;2023-01-15T04:48:47;0.05;;;0.00;;
51475;SDS011;37554;50.362;7.568;2023-01-15T04:51:12;0.20;;;0.13;;
51475;SDS011;37554;50.362;7.568;2023-01-15T04:53:38;0.30;;;0.10;;
51475;SDS011;37554;50.362;7.568;2023-01-15T04:56:04;0.35;;;0.08;;
51475;SDS011;37554;50.362;7.568;2023-01-15T04:58:30;0.55;;;0.20;;
51475;SDS011;37554;50.362;7.568;2023-01-15T05:00:57;0.52;;;0.10;;
51475;SDS011;37554;50.362;7.568;2023-01-15T05:03:25;0.28;;;0.10;;
51475;SDS011;37554;50.362;7.568;2023-01-15T05:05:51;0.55;;;0.15;;
51475;SDS011;37554;50.362;7.568;2023-01-15T05:08:17;0.63;;;0.15;;
51475;SDS011;37554;50.362;7.568;2023-01-15T05:10:42;0.80;;;0.10;;
51475;SDS011;37554;50.362;7.568;2023-01-15T05:13:08;0.50;;;0.20;;
51475;SDS011;37554;50.362;7.568;2023-01-15T05:15:34;2.35;;;0.35;;
51475;SDS011;37554;50.362;7.568;2023-01-15T05:17:59;0.35;;;0.10;;
51475;SDS011;37554;50.362;7.568;2023-01-15T05:20:25;0.40;;;0.17;;
51475;SDS011;37554;50.362;7.568;2023-01-15T05:22:50;0.40;;;0.13;;
51475;SDS011;37554;50.362;7.568;2023-01-15T05:25:16;0.08;;;0.00;;
51475;SDS011;37554;50.362;7.568;2023-01-15T05:27:41;0.35;;;0.00;;
51475;SDS011;37554;50.362;7.568;2023-01-15T05:30:07;0.60;;;0.20;;
51475;SDS011;37554;50.362;7.568;2023-01-15T05:32:34;0.20;;;0.10;;
51475;SDS011;37554;50.362;7.568;2023-01-15T05:34:59;0.43;;;0.10;;
51475;SDS011;37554;50.362;7.568;2023-01-15T05:37:25;0.25;;;0.10;;
51475;SDS011;37554;50.362;7.568;2023-01-15T05:39:53;0.20;;;0.00;;
51475;SDS011;37554;50.362;7.568;2023-01-15T05:42:18;0.98;;;0.10;;
51475;SDS011;37554;50.362;7.568;2023-01-15T05:44:44;0.28;;;0.10;;
51475;SDS011;37554;50.362;7.568;2023-01-15T05:47:09;0.35;;;0.10;;
51475;SDS011;37554;50.362;7.568;2023-01-15T05:49:35;0.32;;;0.10;;
51475;SDS011;37554;50.362;7.568;2023-01-15T05:52:01;0.43;;;0.10;;
51475;SDS011;37554;50.362;7.568;2023-01-15T05:54:36;0.10;;;0.00;;
51475;SDS011;37554;50.362;7.568;2023-01-15T05:57:02;0.43;;;0.10;;
51475;SDS011;37554;50.362;7.568;2023-01-15T05:59:29;0.60;;;0.10;;
51475;SDS011;37554;50.362;7.568;2023-01-15T06:01:56;0.40;;;0.10;;
51475;SDS011;37554;50.362;7.568;2023-01-15T06:04:21;0.47;;;0.10;;
51475;SDS011;37554;50.362;7.568;2023-01-15T06:06:52;0.93;;;0.10;;
51475;SDS011;37554;50.362;7.568;2023-01-15T06:09:18;0.88;;;0.20;;
51475;SDS011;37554;50.362;7.568;2023-01-15T06:11:46;0.25;;;0.10;;
51475;SDS011;37554;50.362;7.568;2023-01-15T06:14:12;0.20;;;0.10;;
51475;SDS011;37554;50.362;7.568;2023-01-15T06:16:39;0.57;;;0.17;;
51475;SDS011;37554;50.362;7.568;2023-01-15T06:19:05;0.40;;;0.10;;
51475;SDS011;37554;50.362;7.568;2023-01-15T06:21:31;0.40;;;0.10;;
51475;SDS011;37554;50.362;7.568;2023-01-15T06:23:58;0.88;;;0.10;;
51475;SDS011;37554;50.362;7.568;2023-01-15T06:26:24;0.00;;;0.00;;
51475;SDS011;37554;50.362;7.568;2023-01-15T06:28:50;0.25;;;0.10;;
51475;SDS011;37554;50.362;7.568;2023-01-15T06:31:17;0.28;;;0.10;;
51475;SDS011;37554;50.362;7.568;2023-01-15T06:33:44;0.40;;;0.10;;
51475;SDS011;37554;50.362;7.568;2023-01-15T06:36:12;0.32;;;0.10;;
51475;SDS011;37554;50.362;7.568;2023-01-15T06:38:42;0.30;;;0.10;;
51475;SDS011;37554;50.362;7.568;2023-01-15T06:41:11;0.22;;;0.10;;
51475;SDS011;37554;50.362;7.568;2023-01-15T06:43:59;0.50;;;0.10;;
51475;SDS011;37554;50.362;7.568;2023-01-15T06:46:44;0.08;;;0.08;;
51475;SDS011;37554;50.362;7.568;2023-01-15T06:49:31;0.40;;;0.10;;
51475;SDS011;37554;50.362;7.568;2023-01-15T06:51:57;0.28;;;0.10;;
51475;SDS011;37554;50.362;7.568;2023-01-15T06:54:23;0.35;;;0.10;;
51475;SDS011;37554;50.362;7.568;2023-01-15T06:56:49;0.63;;;0.10;;
51475;SDS011;37554;50.362;7.568;2023-01-15T06:59:15;0.30;;;0.00;;
51475;SDS011;37554;50.362;7.568;2023-01-15T07:01:41;2.22;;;0.10;;
51475;SDS011;37554;50.362;7.568;2023-01-15T07:04:07;0.40;;;0.00;;
51475;SDS011;37554;50.362;7.568;2023-01-15T07:06:32;0.10;;;0.00;;
51475;SDS011;37554;50.362;7.568;2023-01-15T07:08:58;0.20;;;0.20;;
51475;SDS011;37554;50.362;7.568;2023-01-15T07:11:24;0.00;;;0.00;;
51475;SDS011;37554;50.362;7.568;2023-01-15T07:13:49;0.10;;;0.00;;
51475;SDS011;37554;50.362;7.568;2023-01-15T07:16:15;0.30;;;0.10;;
51475;SDS011;37554;50.362;7.568;2023-01-15T07:18:53;0.25;;;0.00;;
51475;SDS011;37554;50.362;7.568;2023-01-15T07:21:19;0.05;;;0.05;;
51475;SDS011;37554;50.362;7.568;2023-01-15T07:23:45;0.10;;;0.10;;
51475;SDS011;37554;50.362;7.568;2023-01-15T07:26:11;0.35;;;0.10;;
51475;SDS011;37554;50.362;7.568;2023-01-15T07:28:37;0.17;;;0.10;;
51475;SDS011;37554;50.362;7.568;2023-01-15T07:31:02;0.30;;;0.10;;
51475;SDS011;37554;50.362;7.568;2023-01-15T07:33:28;0.17;;;0.17;;
51475;SDS011;37554;50.362;7.568;2023-01-15T07:35:54;0.10;;;0.10;;
51475;SDS011;37554;50.362;7.568;2023-01-15T07:38:20;0.10;;;0.10;;
51475;SDS011;37554;50.362;7.568;2023-01-15T07:40:46;0.35;;;0.10;;
51475;SDS011;37554;50.362;7.568;2023-01-15T07:43:32;1.17;;;0.10;;
51475;SDS011;37554;50.362;7.568;2023-01-15T07:46:16;0.10;;;0.10;;
51475;SDS011;37554;50.362;7.568;2023-01-15T07:49:00;0.30;;;0.10;;
51475;SDS011;37554;50.362;7.568;2023-01-15T07:51:44;0.10;;;0.08;;
51475;SDS011;37554;50.362;7.568;2023-01-15T07:54:10;0.20;;;0.10;;
51475;SDS011;37554;50.362;7.568;2023-01-15T07:56:36;0.10;;;0.05;;
51475;SDS011;37554;50.362;7.568;2023-01-15T07:59:02;0.30;;;0.13;;
51475;SDS011;37554;50.362;7.568;2023-01-15T08:01:27;0.30;;;0.10;;
51475;SDS011;37554;50.362;7.568;2023-01-15T08:03:53;0.30;;;0.03;;
51475;SDS011;37554;50.362;7.568;2023-01-15T08:06:19;0.35;;;0.10;;
51475;SDS011;37554;50.362;7.568;2023-01-15T08:08:44;0.10;;;0.10;;
51475;SDS011;37554;50.362;7.568;2023-01-15T08:11:10;0.08;;;0.08;;
51475;SDS011;37554;50.362;7.568;2023-01-15T08:13:54;0.10;;;0.10;;
51475;SDS011;37554;50.362;7.568;2023-01-15T08:16:38;0.15;;;0.10;;
51475;SDS011;37554;50.362;7.568;2023-01-15T08:19:03;1.65;;;0.10;;
51475;SDS011;37554;50.362;7.568;2023-01-15T08:21:29;0.00;;;0.00;;
51475;SDS011;37554;50.362;7.568;2023-01-15T08:23:55;0.10;;;0.10;;
51475;SDS011;37554;50.362;7.568;2023-01-15T08:26:21;0.82;;;0.00;;
51475;SDS011;37554;50.362;7.568;2023-01-15T08:28:46;0.38;;;0.10;;
51475;SDS011;37554;50.362;7.568;2023-01-15T08:31:12;0.15;;;0.10;;
51475;SDS011;37554;50.362;7.568;2023-01-15T08:33:37;0.30;;;0.10;;
51475;SDS011;37554;50.362;7.568;2023-01-15T08:36:03;0.20;;;0.10;;
51475;SDS011;37554;50.362;7.568;2023-01-15T08:38:29;0.22;;;0.10;;
51475;SDS011;37554;50.362;7.568;2023-01-15T08:40:55;0.00;;;0.00;;
51475;SDS011;37554;50.362;7.568;2023-01-15T08:43:24;1.25;;;0.15;;
51475;SDS011;37554;50.362;7.568;2023-01-15T08:45:50;0.20;;;0.10;;
51475;SDS011;37554;50.362;7.568;2023-01-15T08:48:16;0.52;;;0.10;;
51475;SDS011;37554;50.362;7.568;2023-01-15T08:50:42;0.35;;;0.20;;
51475;SDS011;37554;50.362;7.568;2023-01-15T08:53:08;0.40;;;0.20;;
51475;SDS011;37554;50.362;7.568;2023-01-15T08:55:33;0.28;;;0.00;;
51475;SDS011;37554;50.362;7.568;2023-01-15T08:58:01;0.22;;;0.00;;
51475;SDS011;37554;50.362;7.568;2023-01-15T09:00:26;0.30;;;0.20;;
51475;SDS011;37554;50.362;7.568;2023-01-15T09:02:52;0.20;;;0.10;;
51475;SDS011;37554;50.362;7.568;2023-01-15T09:05:17;0.28;;;0.20;;
51475;SDS011;37554;50.362;7.568;2023-01-15T09:07:43;0.43;;;0.10;;
51475;SDS011;37554;50.362;7.568;2023-01-15T09:10:09;0.57;;;0.15;;
51475;SDS011;37554;50.362;7.568;2023-01-15T09:12:35;1.00;;;0.20;;
51475;SDS011;37554;50.362;7.568;2023-01-15T09:15:00;0.63;;;0.20;;
51475;SDS011;37554;50.362;7.568;2023-01-15T09:17:26;0.45;;;0.20;;
51475;SDS011;37554;50.362;7.568;2023-01-15T09:19:52;0.20;;;0.10;;
51475;SDS011;37554;50.362;7.568;2023-01-15T09:22:18;0.70;;;0.20;;
51475;SDS011;37554;50.362;7.568;2023-01-15T09:24:43;0.50;;;0.10;;
51475;SDS011;37554;50.362;7.568;2023-01-15T09:27:10;0.03;;;0.03;;
51475;SDS011;37554;50.362;7.568;2023-01-15T09:29:36;0.43;;;0.10;;
51475;SDS011;37554;50.362;7.568;2023-01-15T09:32:02;0.20;;;0.10;;
51475;SDS011;37554;50.362;7.568;2023-01-15T09:34:28;0.10;;;0.10;;
51475;SDS011;37554;50.362;7.568;2023-01-15T09:36:53;1.35;;;0.00;;
51475;SDS011;37554;50.362;7.568;2023-01-15T09:39:19;0.35;;;0.10;;
51475;SDS011;37554;50.362;7.568;2023-01-15T09:47:33;0.88;;;0.25;;
51475;SDS011;37554;50.362;7.568;2023-01-15T09:50:17;0.20;;;0.10;;
51475;SDS011;37554;50.362;7.568;2023-01-15T09:53:49;0.50;;;0.20;;
51475;SDS011;37554;50.362;7.568;2023-01-15T09:56:01;0.60;;;0.20;;
51475;SDS011;37554;50.362;7.568;2023-01-15T09:58:35;1.27;;;0.20;;
51475;SDS011;37554;50.362;7.568;2023-01-15T10:01:03;0.43;;;0.10;;
51475;SDS011;37554;50.362;7.568;2023-01-15T10:03:39;0.55;;;0.10;;
51475;SDS011;37554;50.362;7.568;2023-01-15T10:08:50;0.40;;;0.10;;
51475;SDS011;37554;50.362;7.568;2023-01-15T10:11:57;0.13;;;0.10;;
51475;SDS011;37554;50.362;7.568;2023-01-15T10:17:46;1.17;;;0.20;;
51475;SDS011;37554;50.362;7.568;2023-01-15T10:20:33;1.15;;;0.20;;
51475;SDS011;37554;50.362;7.568;2023-01-15T10:23:12;0.57;;;0.30;;
51475;SDS011;37554;50.362;7.568;2023-01-15T10:25:50;1.20;;;0.28;;
51475;SDS011;37554;50.362;7.568;2023-01-15T10:30:53;0.40;;;0.30;;
51475;SDS011;37554;50.362;7.568;2023-01-15T10:36:06;0.90;;;0.30;;
51475;SDS011;37554;50.362;7.568;2023-01-15T10:38:53;0.98;;;0.30;;
51475;SDS011;37554;50.362;7.568;2023-01-15T10:41:34;0.75;;;0.28;;
51475;SDS011;37554;50.362;7.568;2023-01-15T10:44:11;1.10;;;0.20;;
51475;SDS011;37554;50.362;7.568;2023-01-15T10:46:43;1.10;;;0.40;;
51475;SDS011;37554;50.362;7.568;2023-01-15T10:49:19;1.50;;;0.38;;
51475;SDS011;37554;50.362;7.568;2023-01-15T10:51:45;1.73;;;0.25;;
51475;SDS011;37554;50.362;7.568;2023-01-15T10:54:23;0.75;;;0.30;;
51475;SDS011;37554;50.362;7.568;2023-01-15T10:57:08;0.77;;;0.20;;
51475;SDS011;37554;50.362;7.568;2023-01-15T10:59:42;0.63;;;0.30;;
51475;SDS011;37554;50.362;7.568;2023-01-15T11:02:58;1.10;;;0.30;;
51475;SDS011;37554;50.362;7.568;2023-01-15T11:05:01;3.35;;;0.50;;
51475;SDS011;37554;50.362;7.568;2023-01-15T11:10:05;1.70;;;0.40;;
51475;SDS011;37554;50.362;7.568;2023-01-15T11:12:36;1.03;;;0.40;;
51475;SDS011;37554;50.362;7.568;2023-01-15T11:15:23;0.75;;;0.30;;
51475;SDS011;37554;50.362;7.568;2023-01-15T11:18:21;1.05;;;0.30;;
51475;SDS011;37554;50.362;7.568;2023-01-15T11:21:12;3.97;;;0.30;;
51475;SDS011;37554;50.362;7.568;2023-01-15T11:23:41;1.88;;;0.40;;
51475;SDS011;37554;50.362;7.568;2023-01-15T11:26:07;1.90;;;0.57;;
51475;SDS011;37554;50.362;7.568;2023-01-15T11:28:36;1.63;;;0.40;;
51475;SDS011;37554;50.362;7.568;2023-01-15T11:31:05;2.08;;;0.60;;
51475;SDS011;37554;50.362;7.568;2023-01-15T11:33:32;1.30;;;0.45;;
51475;SDS011;37554;50.362;7.568;2023-01-15T11:35:59;2.17;;;0.80;;
51475;SDS011;37554;50.362;7.568;2023-01-15T11:38:29;1.30;;;0.50;;
51475;SDS011;37554;50.362;7.568;2023-01-15T11:41:00;2.20;;;0.68;;
51475;SDS011;37554;50.362;7.568;2023-01-15T11:43:27;2.13;;;0.60;;
51475;SDS011;37554;50.362;7.568;2023-01-15T11:46:29;1.70;;;0.70;;
51475;SDS011;37554;50.362;7.568;2023-01-15T11:49:15;2.38;;;0.50;;
51475;SDS011;37554;50.362;7.568;2023-01-15T11:52:01;1.42;;;0.70;;
51475;SDS011;37554;50.362;7.568;2023-01-15T11:54:29;2.03;;;0.75;;
51475;SDS011;37554;50.362;7.568;2023-01-15T11:57:00;1.20;;;0.52;;
51475;SDS011;37554;50.362;7.568;2023-01-15T11:59:26;2.58;;;0.75;;
51475;SDS011;37554;50.362;7.568;2023-01-15T12:01:54;2.20;;;0.80;;
51475;SDS011;37554;50.362;7.568;2023-01-15T12:07:24;3.63;;;0.90;;
51475;SDS011;37554;50.362;7.568;2023-01-15T12:10:12;2.92;;;0.95;;
51475;SDS011;37554;50.362;7.568;2023-01-15T12:21:21;1.83;;;0.85;;
51475;SDS011;37554;50.362;7.568;2023-01-15T12:29:26;1.52;;;0.70;;
51475;SDS011;37554;50.362;7.568;2023-01-15T12:32:02;2.03;;;0.82;;
51475;SDS011;37554;50.362;7.568;2023-01-15T12:42:57;1.60;;;0.70;;
51475;SDS011;37554;50.362;7.568;2023-01-15T12:45:43;2.83;;;0.70;;
51475;SDS011;37554;50.362;7.568;2023-01-15T12:58:47;2.10;;;0.75;;
51475;SDS011;37554;50.362;7.568;2023-01-15T13:01:53;1.50;;;0.68;;
51475;SDS011;37554;50.362;7.568;2023-01-15T13:07:39;1.35;;;0.68;;
51475;SDS011;37554;50.362;7.568;2023-01-15T13:10:25;3.45;;;0.85;;
51475;SDS011;37554;50.362;7.568;2023-01-15T13:13:01;1.80;;;1.08;;
51475;SDS011;37554;50.362;7.568;2023-01-15T13:15:41;3.30;;;1.13;;
51475;SDS011;37554;50.362;7.568;2023-01-15T13:21:05;1.83;;;0.70;;
51475;SDS011;37554;50.362;7.568;2023-01-15T13:27:02;1.42;;;0.80;;
51475;SDS011;37554;50.362;7.568;2023-01-15T13:32:44;2.20;;;0.98;;
51475;SDS011;37554;50.362;7.568;2023-01-15T13:37:50;2.47;;;1.05;;
51475;SDS011;37554;50.362;7.568;2023-01-15T13:40:29;3.70;;;1.05;;
51475;SDS011;37554;50.362;7.568;2023-01-15T13:43:25;2.17;;;0.90;;
51475;SDS011;37554;50.362;7.568;2023-01-15T13:45:56;3.08;;;1.17;;
51475;SDS011;37554;50.362;7.568;2023-01-15T13:48:29;1.92;;;0.90;;
51475;SDS011;37554;50.362;7.568;2023-01-15T13:51:02;2.63;;;0.73;;
51475;SDS011;37554;50.362;7.568;2023-01-15T13:55:59;2.35;;;0.70;;
51475;SDS011;37554;50.362;7.568;2023-01-15T13:58:31;4.85;;;0.73;;
51475;SDS011;37554;50.362;7.568;2023-01-15T14:01:21;1.33;;;0.50;;
51475;SDS011;37554;50.362;7.568;2023-01-15T14:03:59;1.80;;;0.63;;
51475;SDS011;37554;50.362;7.568;2023-01-15T14:06:47;3.50;;;0.82;;
51475;SDS011;37554;50.362;7.568;2023-01-15T14:15:01;1.50;;;0.52;;
51475;SDS011;37554;50.362;7.568;2023-01-15T14:23:21;1.65;;;0.60;;
51475;SDS011;37554;50.362;7.568;2023-01-15T14:31:30;2.25;;;0.68;;
51475;SDS011;37554;50.362;7.568;2023-01-15T14:34:23;1.42;;;0.82;;
51475;SDS011;37554;50.362;7.568;2023-01-15T14:39:29;2.08;;;0.70;;
51475;SDS011;37554;50.362;7.568;2023-01-15T14:42:15;3.58;;;1.92;;
51475;SDS011;37554;50.362;7.568;2023-01-15T14:45:15;1.83;;;0.80;;
51475;SDS011;37554;50.362;7.568;2023-01-15T14:50:27;2.55;;;0.80;;
51475;SDS011;37554;50.362;7.568;2023-01-15T14:53:05;3.30;;;0.80;;
51475;SDS011;37554;50.362;7.568;2023-01-15T15:00:43;1.90;;;0.68;;
51475;SDS011;37554;50.362;7.568;2023-01-15T15:03:13;1.95;;;0.40;;
51475;SDS011;37554;50.362;7.568;2023-01-15T15:05:42;2.13;;;0.70;;
51475;SDS011;37554;50.362;7.568;2023-01-15T15:08:11;1.77;;;0.70;;
51475;SDS011;37554;50.362;7.568;2023-01-15T15:10:39;1.38;;;0.57;;
51475;SDS011;37554;50.362;7.568;2023-01-15T15:13:11;2.65;;;0.68;;
51475;SDS011;37554;50.362;7.568;2023-01-15T15:16:12;3.47;;;0.77;;
51475;SDS011;37554;50.362;7.568;2023-01-15T15:18:57;1.63;;;0.47;;
51475;SDS011;37554;50.362;7.568;2023-01-15T15:21:28;2.03;;;0.50;;
51475;SDS011;37554;50.362;7.568;2023-01-15T15:24:01;2.75;;;0.80;;
51475;SDS011;37554;50.362;7.568;2023-01-15T15:26:39;1.92;;;0.57;;
51475;SDS011;37554;50.362;7.568;2023-01-15T15:31:36;1.65;;;0.63;;
51475;SDS011;37554;50.362;7.568;2023-01-15T15:34:42;1.48;;;0.40;;
51475;SDS011;37554;50.362;7.568;2023-01-15T15:37:04;2.05;;;0.60;;
51475;SDS011;37554;50.362;7.568;2023-01-15T15:42:16;1.77;;;0.50;;
51475;SDS011;37554;50.362;7.568;2023-01-15T15:45:26;2.17;;;0.32;;
51475;SDS011;37554;50.362;7.568;2023-01-15T15:48:15;0.95;;;0.40;;
51475;SDS011;37554;50.362;7.568;2023-01-15T15:51:02;2.00;;;0.77;;
51475;SDS011;37554;50.362;7.568;2023-01-15T15:53:29;1.95;;;0.55;;
51475;SDS011;37554;50.362;7.568;2023-01-15T15:55:55;2.35;;;0.80;;
51475;SDS011;37554;50.362;7.568;2023-01-15T15:58:24;1.30;;;0.60;;
51475;SDS011;37554;50.362;7.568;2023-01-15T16:00:59;1.77;;;0.80;;
51475;SDS011;37554;50.362;7.568;2023-01-15T16:03:26;2.15;;;0.85;;
51475;SDS011;37554;50.362;7.568;2023-01-15T16:06:02;1.38;;;0.65;;
51475;SDS011;37554;50.362;7.568;2023-01-15T16:08:30;1.85;;;0.60;;
51475;SDS011;37554;50.362;7.568;2023-01-15T16:10:58;1.63;;;0.75;;
51475;SDS011;37554;50.362;7.568;2023-01-15T16:13:27;1.73;;;0.68;;
51475;SDS011;37554;50.362;7.568;2023-01-15T16:15:57;1.60;;;0.70;;
51475;SDS011;37554;50.362;7.568;2023-01-15T16:18:25;2.15;;;0.57;;
51475;SDS011;37554;50.362;7.568;2023-01-15T16:20:55;1.75;;;0.60;;
51475;SDS011;37554;50.362;7.568;2023-01-15T16:23:30;2.97;;;0.60;;
51475;SDS011;37554;50.362;7.568;2023-01-15T16:26:01;1.42;;;0.77;;
51475;SDS011;37554;50.362;7.568;2023-01-15T16:28:39;1.20;;;0.63;;
51475;SDS011;37554;50.362;7.568;2023-01-15T16:31:09;2.97;;;0.73;;
51475;SDS011;37554;50.362;7.568;2023-01-15T16:33:39;2.10;;;0.88;;
51475;SDS011;37554;50.362;7.568;2023-01-15T16:36:05;2.90;;;0.90;;
51475;SDS011;37554;50.362;7.568;2023-01-15T16:38:35;2.58;;;0.82;;
51475;SDS011;37554;50.362;7.568;2023-01-15T16:41:06;3.85;;;1.00;;
51475;SDS011;37554;50.362;7.568;2023-01-15T16:44:03;1.88;;;1.00;;
51475;SDS011;37554;50.362;7.568;2023-01-15T16:46:34;1.95;;;0.90;;
51475;SDS011;37554;50.362;7.568;2023-01-15T16:51:47;3.53;;;1.00;;
51475;SDS011;37554;50.362;7.568;2023-01-15T16:56:54;2.38;;;1.20;;
51475;SDS011;37554;50.362;7.568;2023-01-15T17:01:55;1.83;;;1.00;;
51475;SDS011;37554;50.362;7.568;2023-01-15T17:04:37;3.00;;;0.90;;
51475;SDS011;37554;50.362;7.568;2023-01-15T17:10:03;2.35;;;0.82;;
51475;SDS011;37554;50.362;7.568;2023-01-15T17:12:35;2.40;;;1.02;;
51475;SDS011;37554;50.362;7.568;2023-01-15T17:17:47;2.03;;;1.17;;
51475;SDS011;37554;50.362;7.568;2023-01-15T17:20:15;3.15;;;1.52;;
51475;SDS011;37554;50.362;7.568;2023-01-15T17:22:43;2.08;;;1.13;;
51475;SDS011;37554;50.362;7.568;2023-01-15T17:27:55;1.98;;;1.23;;
51475;SDS011;37554;50.362;7.568;2023-01-15T17:30:23;1.88;;;1.00;;
51475;SDS011;37554;50.362;7.568;2023-01-15T17:32:54;2.25;;;1.15;;
51475;SDS011;37554;50.362;7.568;2023-01-15T17:35:22;3.65;;;1.17;;
51475;SDS011;37554;50.362;7.568;2023-01-15T17:37:49;1.90;;;0.90;;